createdAt,value
2017-10-14T00:01:16.720Z,84.00
2017-10-14T00:03:45.543Z,82.90
2017-10-14T00:06:13.615Z,83.80
2017-10-14T00:08:41.660Z,83.70
2017-10-14T00:11:09.729Z,83.60
2017-10-14T00:13:38.547Z,83.40
2017-10-14T00:16:06.592Z,83.40
2017-10-14T00:18:34.677Z,83.40
2017-10-14T00:21:02.733Z,83.40
2017-10-14T00:23:30.819Z,83.60
2017-10-14T00:25:58.867Z,83.60
2017-10-14T00:28:26.916Z,83.50
2017-10-14T00:30:55.736Z,83.50
2017-10-14T00:33:23.779Z,83.50
2017-10-14T00:35:52.605Z,83.60
2017-10-14T00:38:20.653Z,83.60
2017-10-14T00:40:48.722Z,83.50
2017-10-14T00:43:16.769Z,83.50
2017-10-14T00:45:46.415Z,83.60
2017-10-14T00:48:14.481Z,83.60
2017-10-14T00:50:42.558Z,83.60
2017-10-14T00:53:10.592Z,83.50
2017-10-14T00:55:39.416Z,83.60
2017-10-14T00:58:07.477Z,83.60
2017-10-14T01:00:35.541Z,83.50
2017-10-14T01:03:03.602Z,83.50
2017-10-14T01:05:31.674Z,83.50
2017-10-14T01:08:00.473Z,83.50
2017-10-14T01:10:28.550Z,83.50
2017-10-14T01:12:56.620Z,83.60
2017-10-14T01:15:24.684Z,83.60
2017-10-14T01:17:52.733Z,83.60
2017-10-14T01:20:20.793Z,83.70
2017-10-14T01:22:49.611Z,83.80
2017-10-14T01:25:17.691Z,83.80
2017-10-14T01:27:45.754Z,84.50
2017-10-14T01:30:13.821Z,83.80
2017-10-14T01:32:41.871Z,83.80
2017-10-14T01:35:09.956Z,83.60
2017-10-14T01:37:38.006Z,83.70
2017-10-14T01:40:06.042Z,84.10
2017-10-14T01:42:34.105Z,83.60
2017-10-14T01:45:02.161Z,83.70
2017-10-14T01:47:30.207Z,83.90
2017-10-14T01:49:58.261Z,84.00
2017-10-14T01:52:26.343Z,84.00
2017-10-14T01:54:54.394Z,84.10
2017-10-14T01:57:22.451Z,84.20
2017-10-14T01:59:51.281Z,84.10
2017-10-14T02:02:19.329Z,84.10
2017-10-14T02:04:47.407Z,84.10
2017-10-14T02:07:15.449Z,83.90
2017-10-14T02:09:44.273Z,83.90
2017-10-14T02:12:12.326Z,83.90
2017-10-14T02:14:40.389Z,83.80
2017-10-14T02:17:08.437Z,83.80
2017-10-14T02:19:37.264Z,83.70
2017-10-14T02:22:05.359Z,83.60
2017-10-14T02:24:33.432Z,83.60
2017-10-14T02:27:01.480Z,83.60
2017-10-14T02:29:29.535Z,83.50
2017-10-14T02:31:57.589Z,83.50
2017-10-14T02:34:25.637Z,83.40
2017-10-14T02:36:54.470Z,83.40
2017-10-14T02:39:22.529Z,83.40
2017-10-14T02:41:50.589Z,83.40
2017-10-14T02:44:19.492Z,83.40
2017-10-14T02:46:47.533Z,83.40
2017-10-14T02:49:16.455Z,83.40
2017-10-14T02:51:44.508Z,83.40
2017-10-14T02:54:12.570Z,83.30
2017-10-14T02:56:40.612Z,83.30
2017-10-14T02:59:09.455Z,83.80
2017-10-14T03:01:37.493Z,83.30
2017-10-14T03:04:05.553Z,83.30
2017-10-14T03:06:34.369Z,83.40
2017-10-14T03:09:02.434Z,83.40
2017-10-14T03:11:30.481Z,83.40
2017-10-14T03:13:59.297Z,83.30
2017-10-14T03:16:27.367Z,83.30
2017-10-14T03:18:55.417Z,83.30
2017-10-14T03:21:23.483Z,83.40
2017-10-14T03:23:51.550Z,83.40
2017-10-14T03:26:19.611Z,83.30
2017-10-14T03:28:48.429Z,83.20
2017-10-14T03:31:16.495Z,83.30
2017-10-14T03:33:44.537Z,83.30
2017-10-14T03:36:13.366Z,83.30
2017-10-14T03:38:41.423Z,83.30
2017-10-14T03:41:09.479Z,83.30
2017-10-14T03:43:37.550Z,83.30
2017-10-14T03:46:05.607Z,83.30
2017-10-14T03:48:34.434Z,83.40
2017-10-14T03:51:02.488Z,83.30
2017-10-14T03:53:30.541Z,83.20
2017-10-14T03:55:58.582Z,83.20
2017-10-14T03:58:26.649Z,83.20
2017-10-14T04:00:54.690Z,83.30
2017-10-14T04:03:22.764Z,83.40
2017-10-14T04:05:50.806Z,83.30
2017-10-14T04:08:18.860Z,83.40
2017-10-14T04:10:46.923Z,84.00
2017-10-14T04:13:15.754Z,83.20
2017-10-14T04:15:43.800Z,83.20
2017-10-14T04:18:12.813Z,83.20
2017-10-14T04:20:40.873Z,83.20
2017-10-14T04:23:08.938Z,83.30
2017-10-14T04:25:37.048Z,83.10
2017-10-14T04:28:05.100Z,83.80
2017-10-14T04:30:33.152Z,83.10
2017-10-14T04:33:01.198Z,83.20
2017-10-14T04:35:29.263Z,83.20
2017-10-14T04:37:57.298Z,83.20
2017-10-14T04:40:25.370Z,83.30
2017-10-14T04:42:53.400Z,83.20
2017-10-14T04:45:21.473Z,83.20
2017-10-14T04:47:49.537Z,83.20
2017-10-14T04:50:17.595Z,83.20
2017-10-14T04:52:45.667Z,83.10
2017-10-14T04:55:13.709Z,83.20
2017-10-14T04:57:42.541Z,83.20
2017-10-14T05:00:10.601Z,83.30
2017-10-14T05:02:38.663Z,83.30
2017-10-14T05:05:06.733Z,83.40
2017-10-14T05:07:34.785Z,83.40
2017-10-14T05:10:02.855Z,83.50
2017-10-14T05:12:30.905Z,83.50
2017-10-14T05:14:59.729Z,83.40
2017-10-14T05:17:27.782Z,83.40
2017-10-14T05:19:55.893Z,83.40
2017-10-14T05:22:23.956Z,83.50
2017-10-14T05:24:52.030Z,83.30
2017-10-14T05:27:20.084Z,83.20
2017-10-14T05:29:48.135Z,83.20
2017-10-14T05:32:16.215Z,83.10
2017-10-14T05:34:44.264Z,83.10
2017-10-14T05:37:12.334Z,83.10
2017-10-14T05:39:40.382Z,83.10
2017-10-14T05:42:08.442Z,83.10
2017-10-14T05:44:36.494Z,83.10
2017-10-14T05:47:04.551Z,83.20
2017-10-14T05:49:32.583Z,83.30
2017-10-14T05:52:00.673Z,83.40
2017-10-14T05:54:28.717Z,83.50
2017-10-14T05:56:56.767Z,83.50
2017-10-14T05:59:25.594Z,83.60
2017-10-14T06:01:53.649Z,83.40
2017-10-14T06:04:21.712Z,83.60
2017-10-14T06:06:49.765Z,83.40
2017-10-14T06:09:19.556Z,83.60
2017-10-14T06:11:47.609Z,83.60
2017-10-14T06:14:15.645Z,83.90
2017-10-14T06:16:43.723Z,84.10
2017-10-14T06:19:11.779Z,84.20
2017-10-14T06:21:39.850Z,84.30
2017-10-14T06:24:07.898Z,84.10
2017-10-14T06:26:36.721Z,84.30
2017-10-14T06:29:04.791Z,84.20
2017-10-14T06:31:32.887Z,84.40
2017-10-14T06:34:00.930Z,85.00
2017-10-14T06:36:28.981Z,84.30
2017-10-14T06:38:57.033Z,84.10
2017-10-14T06:41:25.840Z,83.70
2017-10-14T06:43:53.934Z,83.80
2017-10-14T06:46:21.996Z,83.50
2017-10-14T06:48:50.046Z,83.20
2017-10-14T06:51:18.120Z,82.20
2017-10-14T06:53:46.167Z,81.90
2017-10-14T06:56:14.980Z,81.60
2017-10-14T06:58:43.074Z,81.60
2017-10-14T07:01:11.127Z,81.40
2017-10-14T07:03:39.181Z,81.40
2017-10-14T07:06:08.257Z,81.90
2017-10-14T07:08:37.087Z,81.40
2017-10-14T07:11:05.141Z,81.40
2017-10-14T07:13:33.201Z,81.10
2017-10-14T07:16:01.259Z,80.40
2017-10-14T07:18:29.324Z,78.90
2017-10-14T07:20:58.152Z,77.30
2017-10-14T07:23:26.212Z,77.30
2017-10-14T07:25:54.977Z,76.40
2017-10-14T07:28:23.169Z,76.30
2017-10-14T07:30:51.220Z,76.10
2017-10-14T07:33:20.046Z,75.60
2017-10-14T07:35:48.093Z,75.60
2017-10-14T07:38:16.168Z,75.80
2017-10-14T07:40:44.235Z,75.20
2017-10-14T07:43:12.303Z,74.20
2017-10-14T07:45:40.348Z,74.00
2017-10-14T07:48:08.394Z,74.10
2017-10-14T07:50:36.447Z,73.50
2017-10-14T07:53:04.505Z,72.40
2017-10-14T07:55:32.588Z,72.20
2017-10-14T07:58:00.861Z,71.40
2017-10-14T08:00:28.934Z,70.90
2017-10-14T08:02:57.014Z,71.10
2017-10-14T08:05:25.071Z,71.00
2017-10-14T08:07:53.143Z,70.60
2017-10-14T08:10:21.187Z,70.20
2017-10-14T08:12:49.267Z,69.50
2017-10-14T08:15:17.320Z,69.60
2017-10-14T08:17:45.391Z,69.60
2017-10-14T08:20:13.455Z,69.50
2017-10-14T08:22:41.515Z,69.80
2017-10-14T08:25:09.579Z,69.60
2017-10-14T08:27:37.627Z,68.30
2017-10-14T08:30:06.459Z,68.00
2017-10-14T08:32:34.503Z,68.00
2017-10-14T08:35:02.578Z,68.60
2017-10-14T08:37:30.636Z,66.30
2017-10-14T08:39:58.699Z,66.10
2017-10-14T08:42:26.767Z,66.20
2017-10-14T08:44:55.910Z,66.60
2017-10-14T08:47:23.987Z,66.60
2017-10-14T08:49:52.063Z,67.30
2017-10-14T08:52:20.150Z,66.80
2017-10-14T08:54:48.200Z,66.00
2017-10-14T08:57:16.273Z,65.40
2017-10-14T08:59:44.346Z,65.50
2017-10-14T09:02:12.385Z,64.70
2017-10-14T09:04:40.451Z,64.40
2017-10-14T09:07:08.522Z,65.20
2017-10-14T09:09:37.477Z,64.50
2017-10-14T09:12:06.313Z,62.80
2017-10-14T09:14:34.402Z,62.70
2017-10-14T09:17:02.448Z,61.40
2017-10-14T09:19:30.500Z,60.20
2017-10-14T09:21:58.588Z,59.40
2017-10-14T09:24:26.664Z,59.70
2017-10-14T09:26:54.738Z,58.30
2017-10-14T09:29:22.808Z,58.90
2017-10-14T09:31:50.852Z,58.60
2017-10-14T09:34:18.920Z,57.70
2017-10-14T09:36:46.993Z,56.80
2017-10-14T09:39:15.830Z,56.60
2017-10-14T09:41:43.902Z,58.50
2017-10-14T09:44:11.970Z,56.90
2017-10-14T09:46:40.021Z,56.40
2017-10-14T09:49:08.079Z,55.70
2017-10-14T09:51:36.150Z,56.20
2017-10-14T09:54:04.223Z,55.40
2017-10-14T09:56:32.286Z,55.00
2017-10-14T09:59:01.195Z,54.90
2017-10-14T10:01:29.254Z,54.90
2017-10-14T10:03:57.325Z,54.10
2017-10-14T10:06:25.369Z,54.20
2017-10-14T10:08:53.437Z,54.30
2017-10-14T10:11:21.501Z,54.00
2017-10-14T10:13:49.553Z,53.80
2017-10-14T10:16:17.626Z,53.40
2017-10-14T10:18:45.709Z,53.90
2017-10-14T10:21:13.795Z,53.60
2017-10-14T10:23:41.855Z,54.40
2017-10-14T10:26:09.944Z,54.70
2017-10-14T10:28:37.993Z,53.10
2017-10-14T10:31:06.061Z,54.00
2017-10-14T10:33:34.142Z,54.90
2017-10-14T10:36:02.204Z,54.90
2017-10-14T10:38:30.265Z,55.30
2017-10-14T10:40:58.343Z,55.50
2017-10-14T10:43:26.399Z,55.70
2017-10-14T10:45:54.453Z,55.10
2017-10-14T10:48:23.269Z,55.90
2017-10-14T10:50:51.351Z,55.90
2017-10-14T10:53:19.410Z,56.40
2017-10-14T10:55:47.495Z,56.70
2017-10-14T10:58:15.541Z,56.60
2017-10-14T11:00:43.592Z,57.50
2017-10-14T11:03:11.657Z,57.40
2017-10-14T11:05:39.718Z,57.70
2017-10-14T11:08:08.563Z,58.80
2017-10-14T11:10:36.631Z,58.70
2017-10-14T11:13:04.696Z,58.80
2017-10-14T11:15:32.760Z,58.70
2017-10-14T11:18:00.814Z,58.60
2017-10-14T11:20:28.882Z,59.20
2017-10-14T11:22:56.929Z,59.30
2017-10-14T11:25:25.764Z,59.30
2017-10-14T11:27:53.809Z,59.30
2017-10-14T11:30:21.916Z,59.70
2017-10-14T11:32:49.973Z,60.00
2017-10-14T11:35:18.022Z,59.50
2017-10-14T11:37:46.097Z,59.50
2017-10-14T11:40:14.141Z,59.00
2017-10-14T11:42:43.153Z,59.20
2017-10-14T11:45:11.209Z,59.50
2017-10-14T11:47:39.289Z,60.00
2017-10-14T11:50:07.342Z,60.00
2017-10-14T11:52:35.407Z,59.60
2017-10-14T11:55:03.467Z,60.70
2017-10-14T11:57:32.426Z,62.10
2017-10-14T12:00:00.584Z,62.20
2017-10-14T12:02:28.679Z,62.50
2017-10-14T12:04:56.763Z,63.00
2017-10-14T12:07:25.607Z,61.70
2017-10-14T12:09:53.660Z,61.70
2017-10-14T12:12:21.763Z,61.40
2017-10-14T12:14:49.827Z,61.90
2017-10-14T12:17:17.871Z,61.70
2017-10-14T12:19:45.925Z,62.00
2017-10-14T12:22:14.003Z,61.90
2017-10-14T12:24:42.040Z,61.80
2017-10-14T12:27:10.869Z,61.50
2017-10-14T12:29:38.929Z,61.50
2017-10-14T12:32:07.003Z,61.80
2017-10-14T12:34:35.051Z,60.90
2017-10-14T12:37:03.114Z,60.80
2017-10-14T12:39:32.043Z,60.80
2017-10-14T12:42:00.133Z,60.90
2017-10-14T12:44:28.188Z,60.40
2017-10-14T12:46:56.247Z,60.20
2017-10-14T12:49:24.319Z,60.40
2017-10-14T12:51:52.398Z,61.30
2017-10-14T12:54:20.463Z,60.10
2017-10-14T12:56:48.535Z,60.40
2017-10-14T12:59:16.703Z,59.80
2017-10-14T13:01:44.769Z,60.20
2017-10-14T13:04:12.891Z,60.40
2017-10-14T13:06:41.712Z,59.80
2017-10-14T13:09:09.767Z,59.80
2017-10-14T13:11:37.886Z,60.50
2017-10-14T13:14:06.066Z,59.80
2017-10-14T13:16:34.865Z,60.00
2017-10-14T13:19:02.932Z,60.60
2017-10-14T13:21:31.073Z,60.40
2017-10-14T13:23:59.142Z,60.60
2017-10-14T13:26:27.213Z,61.20
2017-10-14T13:28:55.318Z,61.00
2017-10-14T13:31:23.361Z,61.20
2017-10-14T13:33:51.424Z,60.00
2017-10-14T13:36:19.615Z,59.60
2017-10-14T13:38:47.669Z,59.70
2017-10-14T13:41:15.764Z,60.80
2017-10-14T13:43:43.905Z,60.90
2017-10-14T13:46:11.984Z,61.10
2017-10-14T13:48:40.158Z,61.10
2017-10-14T13:51:08.292Z,61.20
2017-10-14T13:53:36.364Z,61.80
2017-10-14T13:56:04.436Z,62.10
2017-10-14T13:58:32.517Z,61.90
2017-10-14T14:01:00.613Z,62.40
2017-10-14T14:03:28.691Z,61.80
2017-10-14T14:05:56.763Z,61.90
2017-10-14T14:08:24.995Z,60.90
2017-10-14T14:10:53.082Z,60.60
2017-10-14T14:13:21.157Z,60.00
2017-10-14T14:15:49.337Z,61.40
2017-10-14T14:18:17.393Z,61.00
2017-10-14T14:20:45.574Z,60.10
2017-10-14T14:23:13.689Z,60.60
2017-10-14T14:25:42.531Z,60.60
2017-10-14T14:28:10.573Z,60.60
2017-10-14T14:30:38.647Z,60.70
2017-10-14T14:33:06.732Z,59.40
2017-10-14T14:35:35.213Z,59.40
2017-10-14T14:38:03.574Z,58.70
2017-10-14T14:40:31.620Z,59.00
2017-10-14T14:42:59.708Z,59.30
2017-10-14T14:45:27.748Z,58.70
2017-10-14T14:47:57.511Z,59.80
2017-10-14T14:50:25.572Z,59.80
2017-10-14T14:52:53.635Z,59.80
2017-10-14T14:55:21.718Z,59.80
2017-10-14T14:57:49.896Z,61.20
2017-10-14T15:00:17.949Z,61.00
2017-10-14T15:02:46.032Z,60.20
2017-10-14T15:05:14.097Z,60.90
2017-10-14T15:07:42.164Z,60.70
2017-10-14T15:10:10.226Z,62.80
2017-10-14T15:12:38.308Z,61.50
2017-10-14T15:15:06.472Z,61.70
2017-10-14T15:17:34.583Z,62.20
2017-10-14T15:20:03.541Z,61.80
2017-10-14T15:22:31.601Z,61.80
2017-10-14T15:24:59.685Z,61.70
2017-10-14T15:27:27.732Z,63.10
2017-10-14T15:29:55.812Z,64.00
2017-10-14T15:32:23.923Z,64.80
2017-10-14T15:34:51.959Z,65.60
2017-10-14T15:37:20.029Z,65.80
2017-10-14T15:39:48.075Z,66.30
2017-10-14T15:42:16.155Z,66.70
2017-10-14T15:44:44.222Z,65.70
2017-10-14T15:47:12.314Z,65.70
2017-10-14T15:49:41.133Z,66.30
2017-10-14T15:52:09.964Z,66.70
2017-10-14T15:54:38.018Z,66.70
2017-10-14T15:57:06.079Z,66.90
2017-10-14T15:59:34.150Z,67.20
2017-10-14T16:02:02.211Z,67.40
2017-10-14T16:04:31.036Z,68.20
2017-10-14T16:06:59.110Z,68.90
2017-10-14T16:09:27.169Z,68.80
2017-10-14T16:11:55.256Z,68.90
2017-10-14T16:14:23.335Z,69.20
2017-10-14T16:16:51.394Z,69.50
2017-10-14T16:19:19.473Z,69.70
2017-10-14T16:21:47.543Z,69.80
2017-10-14T16:24:15.637Z,70.30
2017-10-14T16:26:43.694Z,70.50
2017-10-14T16:29:11.748Z,70.90
2017-10-14T16:31:39.816Z,71.30
2017-10-14T16:34:07.870Z,71.50
2017-10-14T16:36:35.938Z,71.40
2017-10-14T16:39:04.011Z,71.70
2017-10-14T16:41:32.069Z,72.10
2017-10-14T16:44:00.129Z,72.40
2017-10-14T16:46:28.198Z,72.80
2017-10-14T16:48:56.256Z,73.00
2017-10-14T16:51:24.375Z,73.20
2017-10-14T16:53:52.483Z,73.40
2017-10-14T16:56:21.308Z,74.10
2017-10-14T16:58:49.353Z,74.10
2017-10-14T17:01:17.419Z,74.40
2017-10-14T17:03:46.228Z,75.10
2017-10-14T17:06:14.311Z,75.10
2017-10-14T17:08:42.366Z,75.50
2017-10-14T17:11:10.441Z,75.80
2017-10-14T17:13:38.493Z,76.00
2017-10-14T17:16:06.567Z,76.30
2017-10-14T17:18:34.635Z,76.50
2017-10-14T17:21:02.667Z,76.80
2017-10-14T17:23:30.808Z,77.10
2017-10-14T17:25:58.828Z,77.90
2017-10-14T17:28:27.777Z,77.70
2017-10-14T17:30:55.846Z,77.70
2017-10-14T17:33:23.915Z,77.90
2017-10-14T17:35:52.099Z,78.10
2017-10-14T17:38:20.164Z,78.50
2017-10-14T17:40:49.035Z,78.60
2017-10-14T17:43:17.121Z,78.60
2017-10-14T17:45:45.196Z,78.60
2017-10-14T17:48:13.269Z,78.70
2017-10-14T17:50:41.906Z,79.00
2017-10-14T17:53:10.037Z,79.00
2017-10-14T17:55:38.111Z,79.30
2017-10-14T17:58:06.171Z,79.40
2017-10-14T18:00:34.207Z,79.60
2017-10-14T18:03:03.051Z,79.80
2017-10-14T18:05:31.865Z,80.00
2017-10-14T18:08:00.040Z,79.80
2017-10-14T18:10:28.121Z,80.00
2017-10-14T18:12:56.227Z,80.20
2017-10-14T18:15:25.053Z,80.10
2017-10-14T18:17:53.114Z,80.10
2017-10-14T18:20:21.239Z,80.00
2017-10-14T18:22:49.299Z,80.00
2017-10-14T18:25:17.404Z,79.90
2017-10-14T18:27:45.541Z,80.20
2017-10-14T18:30:13.687Z,80.20
2017-10-14T18:32:42.049Z,80.40
2017-10-14T18:35:10.239Z,80.40
2017-10-14T18:37:38.475Z,80.40
2017-10-14T18:40:07.596Z,80.60
2017-10-14T18:42:35.760Z,81.40
2017-10-14T18:45:04.121Z,80.70
2017-10-14T18:47:32.531Z,80.60
2017-10-14T18:50:01.080Z,80.80
2017-10-14T18:52:29.621Z,80.80
2017-10-14T18:55:00.332Z,81.20
2017-10-14T18:57:30.019Z,81.40
2017-10-14T18:59:59.831Z,81.30
2017-10-14T19:02:28.323Z,81.30
2017-10-14T19:04:57.211Z,81.20
2017-10-14T19:07:26.171Z,81.30
2017-10-14T19:09:54.744Z,81.40
2017-10-14T19:12:23.339Z,81.60
2017-10-14T19:14:51.860Z,81.50
2017-10-14T19:17:20.562Z,81.50
2017-10-14T19:19:50.189Z,81.70
2017-10-14T19:22:19.108Z,81.70
2017-10-14T19:24:47.958Z,81.70
2017-10-14T19:27:16.537Z,81.60
2017-10-14T19:29:45.894Z,81.70
2017-10-14T19:32:14.169Z,81.70
2017-10-14T19:34:42.745Z,81.70
2017-10-14T19:37:11.253Z,81.90
2017-10-14T19:39:39.812Z,81.90
2017-10-14T19:42:08.033Z,82.00
2017-10-14T19:44:37.386Z,82.00
2017-10-14T19:47:06.070Z,82.00
2017-10-14T19:49:35.708Z,82.10
2017-10-14T19:52:04.850Z,82.10
2017-10-14T19:54:33.350Z,82.10
2017-10-14T19:57:02.673Z,82.00
2017-10-14T19:59:31.422Z,82.10
2017-10-14T20:02:00.034Z,82.20
2017-10-14T20:04:28.705Z,82.10
2017-10-14T20:06:57.772Z,82.10
2017-10-14T20:09:26.644Z,82.10
2017-10-14T20:11:55.162Z,82.20
2017-10-14T20:14:24.500Z,82.30
2017-10-14T20:16:54.726Z,82.30
2017-10-14T20:19:23.122Z,82.30
2017-10-14T20:21:51.536Z,82.20
2017-10-14T20:24:19.752Z,82.20
2017-10-14T20:26:48.704Z,82.30
2017-10-14T20:29:16.801Z,82.30
2017-10-14T20:31:44.891Z,82.40
2017-10-14T20:34:12.974Z,82.40
2017-10-14T20:36:41.889Z,82.30
2017-10-14T20:39:10.002Z,82.30
2017-10-14T20:41:38.069Z,82.20
2017-10-14T20:44:06.153Z,82.30
2017-10-14T20:46:34.217Z,82.40
2017-10-14T20:49:02.273Z,82.50
2017-10-14T20:51:30.349Z,82.40
2017-10-14T20:53:58.488Z,82.40
2017-10-14T20:56:26.613Z,82.50
2017-10-14T21:00:48.203Z,82.40
2017-10-14T21:05:22.360Z,82.60
2017-10-14T21:07:56.862Z,82.60
2017-10-14T21:10:30.125Z,82.60
2017-10-14T21:13:02.678Z,82.60
2017-10-14T21:15:35.329Z,82.60
2017-10-14T21:18:08.357Z,82.60
2017-10-14T21:20:41.404Z,82.60
2017-10-14T21:23:14.503Z,82.70
2017-10-14T21:25:47.091Z,82.70
2017-10-14T21:28:19.567Z,82.80
2017-10-14T21:30:52.137Z,82.70
2017-10-14T21:33:24.784Z,82.60
2017-10-14T21:35:57.370Z,82.60
2017-10-14T21:38:30.749Z,82.80
2017-10-14T21:41:03.470Z,82.80
2017-10-14T21:43:36.702Z,82.70
2017-10-14T21:46:09.660Z,82.70
2017-10-14T21:48:42.022Z,82.70
2017-10-14T21:51:14.529Z,82.70
2017-10-14T21:53:46.870Z,82.60
2017-10-14T21:56:20.120Z,82.70
2017-10-14T21:58:52.802Z,82.70
2017-10-14T22:01:25.268Z,82.70
2017-10-14T22:03:57.609Z,82.70
2017-10-14T22:06:30.163Z,82.70
2017-10-14T22:09:02.694Z,82.70
2017-10-14T22:11:35.997Z,82.70
2017-10-14T22:14:08.754Z,82.60
2017-10-14T22:16:41.935Z,82.70
2017-10-14T22:19:14.835Z,82.60
2017-10-14T22:21:48.132Z,82.90
2017-10-14T22:24:20.881Z,82.70
2017-10-14T22:26:53.906Z,82.80
2017-10-14T22:29:26.453Z,82.70
2017-10-14T22:31:59.093Z,82.70
2017-10-14T22:34:31.726Z,82.80
2017-10-14T22:37:04.579Z,82.70
2017-10-14T22:39:37.669Z,82.60
2017-10-14T22:42:10.382Z,82.70
2017-10-14T22:44:43.367Z,82.70
2017-10-14T22:47:16.110Z,82.80
2017-10-14T22:49:49.747Z,82.80
2017-10-14T22:52:22.840Z,82.80
2017-10-14T22:54:56.906Z,82.70
2017-10-14T22:57:29.712Z,82.70
2017-10-14T23:00:02.308Z,82.70
2017-10-14T23:02:34.975Z,82.80
2017-10-14T23:05:07.471Z,82.80
2017-10-14T23:07:39.769Z,82.70
2017-10-14T23:10:12.280Z,82.70
2017-10-14T23:12:44.855Z,82.80
2017-10-14T23:15:17.350Z,82.80
2017-10-14T23:17:49.738Z,82.60
2017-10-14T23:20:22.253Z,82.70
2017-10-14T23:22:54.771Z,82.80
2017-10-14T23:25:27.198Z,82.80
2017-10-14T23:28:00.569Z,82.80
2017-10-14T23:30:33.568Z,82.80
2017-10-14T23:33:06.905Z,82.80
2017-10-14T23:35:40.347Z,82.80
2017-10-14T23:38:13.140Z,82.80
2017-10-14T23:40:45.977Z,82.70
2017-10-14T23:43:18.590Z,82.70
2017-10-14T23:45:51.806Z,82.70
2017-10-14T23:48:25.401Z,82.70
2017-10-14T23:50:58.712Z,82.60
2017-10-14T23:53:32.188Z,82.60
2017-10-14T23:56:05.402Z,82.60
2017-10-14T23:58:38.376Z,82.60
